sensor_id;sensor_type;location;lat;lon;timestamp;pressure;altitude;pressure_sealevel;temperature;humidity
25722;BME280;13578;53.450;15.496;2023-03-15T00:01:17;98442.63;;;-0.10;100.00
25722;BME280;13578;53.450;15.496;2023-03-15T00:04:18;98452.13;;;-0.05;100.00
25722;BME280;13578;53.450;15.496;2023-03-15T00:07:19;98452.22;;;-0.06;100.00
25722;BME280;13578;53.450;15.496;2023-03-15T00:10:24;98461.50;;;-0.10;100.00
25722;BME280;13578;53.450;15.496;2023-03-15T00:13:25;98455.56;;;-0.15;100.00
25722;BME280;13578;53.450;15.496;2023-03-15T00:16:26;98463.53;;;-0.14;100.00
25722;BME280;13578;53.450;15.496;2023-03-15T00:19:26;98466.06;;;-0.25;100.00
25722;BME280;13578;53.450;15.496;2023-03-15T00:22:27;98485.59;;;-0.22;100.00
25722;BME280;13578;53.450;15.496;2023-03-15T00:25:28;98486.06;;;-0.15;100.00
25722;BME280;13578;53.450;15.496;2023-03-15T00:28:28;98482.72;;;-0.19;100.00
25722;BME280;13578;53.450;15.496;2023-03-15T00:31:29;98512.56;;;-0.22;100.00
25722;BME280;13578;53.450;15.496;2023-03-15T00:34:31;98504.88;;;-0.28;100.00
25722;BME280;13578;53.450;15.496;2023-03-15T00:37:32;98515.13;;;-0.33;100.00
25722;BME280;13578;53.450;15.496;2023-03-15T00:40:35;98524.00;;;-0.18;100.00
25722;BME280;13578;53.450;15.496;2023-03-15T00:43:36;98525.78;;;-0.32;100.00
25722;BME280;13578;53.450;15.496;2023-03-15T00:46:37;98551.09;;;-0.20;100.00
25722;BME280;13578;53.450;15.496;2023-03-15T00:49:39;98557.97;;;-0.28;100.00
25722;BME280;13578;53.450;15.496;2023-03-15T00:52:39;98556.28;;;-0.17;100.00
25722;BME280;13578;53.450;15.496;2023-03-15T00:55:41;98570.63;;;-0.16;100.00
25722;BME280;13578;53.450;15.496;2023-03-15T00:58:42;98577.22;;;-0.20;100.00
25722;BME280;13578;53.450;15.496;2023-03-15T01:01:43;98584.34;;;-0.19;100.00
25722;BME280;13578;53.450;15.496;2023-03-15T01:04:44;98588.44;;;-0.13;100.00
25722;BME280;13578;53.450;15.496;2023-03-15T01:07:44;98592.88;;;-0.12;100.00
25722;BME280;13578;53.450;15.496;2023-03-15T01:10:45;98599.22;;;-0.13;100.00
25722;BME280;13578;53.450;15.496;2023-03-15T01:13:46;98595.97;;;-0.19;100.00
25722;BME280;13578;53.450;15.496;2023-03-15T01:16:46;98593.94;;;-0.15;100.00
25722;BME280;13578;53.450;15.496;2023-03-15T01:19:47;98592.09;;;-0.14;100.00
25722;BME280;13578;53.450;15.496;2023-03-15T01:22:48;98586.06;;;-0.33;100.00
25722;BME280;13578;53.450;15.496;2023-03-15T01:25:49;98601.03;;;-0.41;100.00
25722;BME280;13578;53.450;15.496;2023-03-15T01:28:49;98602.94;;;-0.43;100.00
25722;BME280;13578;53.450;15.496;2023-03-15T01:31:50;98624.41;;;-0.27;100.00
25722;BME280;13578;53.450;15.496;2023-03-15T01:34:51;98627.78;;;-0.38;100.00
25722;BME280;13578;53.450;15.496;2023-03-15T01:37:51;98635.66;;;-0.35;100.00
25722;BME280;13578;53.450;15.496;2023-03-15T01:40:52;98634.44;;;-0.44;100.00
25722;BME280;13578;53.450;15.496;2023-03-15T01:43:52;98640.50;;;-0.40;100.00
25722;BME280;13578;53.450;15.496;2023-03-15T01:46:53;98642.53;;;-0.44;100.00
25722;BME280;13578;53.450;15.496;2023-03-15T01:49:59;98646.06;;;-0.43;100.00
25722;BME280;13578;53.450;15.496;2023-03-15T01:53:00;98642.13;;;-0.38;100.00
25722;BME280;13578;53.450;15.496;2023-03-15T01:56:01;98653.88;;;-0.39;100.00
25722;BME280;13578;53.450;15.496;2023-03-15T01:59:04;98652.91;;;-0.52;100.00
25722;BME280;13578;53.450;15.496;2023-03-15T02:02:06;98657.75;;;-0.57;100.00
25722;BME280;13578;53.450;15.496;2023-03-15T02:05:08;98663.03;;;-0.56;100.00
25722;BME280;13578;53.450;15.496;2023-03-15T02:08:11;98656.00;;;-0.58;100.00
25722;BME280;13578;53.450;15.496;2023-03-15T02:11:16;98669.38;;;-0.57;100.00
25722;BME280;13578;53.450;15.496;2023-03-15T02:14:18;98665.63;;;-0.54;100.00
25722;BME280;13578;53.450;15.496;2023-03-15T02:17:27;98679.09;;;-0.54;100.00
25722;BME280;13578;53.450;15.496;2023-03-15T02:23:36;98674.09;;;-0.60;100.00
25722;BME280;13578;53.450;15.496;2023-03-15T02:26:47;98680.38;;;-0.60;100.00
25722;BME280;13578;53.450;15.496;2023-03-15T02:29:49;98680.44;;;-0.61;100.00
25722;BME280;13578;53.450;15.496;2023-03-15T02:32:50;98698.06;;;-0.56;100.00
25722;BME280;13578;53.450;15.496;2023-03-15T02:35:51;98709.63;;;-0.54;100.00
25722;BME280;13578;53.450;15.496;2023-03-15T02:38:52;98716.94;;;-0.41;100.00
25722;BME280;13578;53.450;15.496;2023-03-15T02:41:56;98708.28;;;-0.46;100.00
25722;BME280;13578;53.450;15.496;2023-03-15T02:44:57;98720.78;;;-0.60;100.00
25722;BME280;13578;53.450;15.496;2023-03-15T02:47:59;98729.44;;;-0.55;100.00
25722;BME280;13578;53.450;15.496;2023-03-15T02:51:01;98725.78;;;-0.54;100.00
25722;BME280;13578;53.450;15.496;2023-03-15T02:54:01;98733.13;;;-0.41;100.00
25722;BME280;13578;53.450;15.496;2023-03-15T02:57:02;98735.13;;;-0.45;100.00
25722;BME280;13578;53.450;15.496;2023-03-15T03:00:04;98750.06;;;-0.39;100.00
25722;BME280;13578;53.450;15.496;2023-03-15T03:03:12;98752.38;;;-0.47;100.00
25722;BME280;13578;53.450;15.496;2023-03-15T03:06:14;98758.34;;;-0.42;100.00
25722;BME280;13578;53.450;15.496;2023-03-15T03:09:15;98763.03;;;-0.46;100.00
25722;BME280;13578;53.450;15.496;2023-03-15T03:12:16;98763.25;;;-0.49;100.00
25722;BME280;13578;53.450;15.496;2023-03-15T03:15:17;98781.50;;;-0.54;100.00
25722;BME280;13578;53.450;15.496;2023-03-15T03:18:18;98783.75;;;-0.46;100.00
25722;BME280;13578;53.450;15.496;2023-03-15T03:21:19;98794.66;;;-0.48;100.00
25722;BME280;13578;53.450;15.496;2023-03-15T03:24:20;98782.41;;;-0.54;100.00
25722;BME280;13578;53.450;15.496;2023-03-15T03:27:20;98790.88;;;-0.45;100.00
25722;BME280;13578;53.450;15.496;2023-03-15T03:30:22;98791.63;;;-0.58;100.00
25722;BME280;13578;53.450;15.496;2023-03-15T03:33:23;98810.88;;;-0.50;100.00
25722;BME280;13578;53.450;15.496;2023-03-15T03:36:24;98812.22;;;-0.57;100.00
25722;BME280;13578;53.450;15.496;2023-03-15T03:39:25;98822.84;;;-0.54;100.00
25722;BME280;13578;53.450;15.496;2023-03-15T03:42:25;98824.16;;;-0.61;100.00
25722;BME280;13578;53.450;15.496;2023-03-15T03:45:26;98828.59;;;-0.60;100.00
25722;BME280;13578;53.450;15.496;2023-03-15T03:48:27;98819.22;;;-0.69;100.00
25722;BME280;13578;53.450;15.496;2023-03-15T03:51:27;98843.28;;;-0.66;100.00
25722;BME280;13578;53.450;15.496;2023-03-15T03:54:28;98841.38;;;-0.63;100.00
25722;BME280;13578;53.450;15.496;2023-03-15T03:57:29;98856.41;;;-0.59;100.00
25722;BME280;13578;53.450;15.496;2023-03-15T04:00:29;98864.13;;;-0.53;100.00
25722;BME280;13578;53.450;15.496;2023-03-15T04:03:30;98853.81;;;-0.61;100.00
25722;BME280;13578;53.450;15.496;2023-03-15T04:06:31;98858.25;;;-0.60;100.00
25722;BME280;13578;53.450;15.496;2023-03-15T04:09:31;98856.22;;;-0.56;100.00
25722;BME280;13578;53.450;15.496;2023-03-15T04:12:36;98866.22;;;-0.58;100.00
25722;BME280;13578;53.450;15.496;2023-03-15T04:15:37;98871.63;;;-0.58;100.00
25722;BME280;13578;53.450;15.496;2023-03-15T04:18:37;98875.09;;;-0.56;100.00
25722;BME280;13578;53.450;15.496;2023-03-15T04:21:39;98877.47;;;-0.66;100.00
25722;BME280;13578;53.450;15.496;2023-03-15T04:24:46;98879.19;;;-0.65;100.00
25722;BME280;13578;53.450;15.496;2023-03-15T04:27:49;98895.19;;;-0.62;100.00
25722;BME280;13578;53.450;15.496;2023-03-15T04:30:58;98885.88;;;-0.72;100.00
25722;BME280;13578;53.450;15.496;2023-03-15T04:33:58;98881.75;;;-0.78;100.00
25722;BME280;13578;53.450;15.496;2023-03-15T04:36:59;98898.59;;;-0.74;100.00
25722;BME280;13578;53.450;15.496;2023-03-15T04:40:00;98898.34;;;-0.86;100.00
25722;BME280;13578;53.450;15.496;2023-03-15T04:43:03;98894.34;;;-0.94;100.00
25722;BME280;13578;53.450;15.496;2023-03-15T04:46:04;98902.34;;;-0.93;100.00
25722;BME280;13578;53.450;15.496;2023-03-15T04:49:04;98901.22;;;-0.89;100.00
25722;BME280;13578;53.450;15.496;2023-03-15T04:52:05;98902.78;;;-1.01;100.00
25722;BME280;13578;53.450;15.496;2023-03-15T04:55:06;98909.47;;;-0.92;100.00
25722;BME280;13578;53.450;15.496;2023-03-15T04:58:07;98913.47;;;-0.99;100.00
25722;BME280;13578;53.450;15.496;2023-03-15T05:01:08;98905.47;;;-1.01;100.00
25722;BME280;13578;53.450;15.496;2023-03-15T05:04:08;98913.72;;;-1.04;100.00
25722;BME280;13578;53.450;15.496;2023-03-15T05:07:09;98926.13;;;-1.01;100.00
25722;BME280;13578;53.450;15.496;2023-03-15T05:10:10;98930.78;;;-1.03;100.00
25722;BME280;13578;53.450;15.496;2023-03-15T05:13:11;98922.84;;;-1.06;100.00
25722;BME280;13578;53.450;15.496;2023-03-15T05:16:11;98935.38;;;-1.05;100.00
25722;BME280;13578;53.450;15.496;2023-03-15T05:19:12;98939.88;;;-1.06;100.00
25722;BME280;13578;53.450;15.496;2023-03-15T05:22:13;98949.28;;;-0.97;100.00
25722;BME280;13578;53.450;15.496;2023-03-15T05:25:13;98952.03;;;-0.99;100.00
25722;BME280;13578;53.450;15.496;2023-03-15T05:28:14;98952.91;;;-0.82;100.00
25722;BME280;13578;53.450;15.496;2023-03-15T05:31:17;98964.22;;;-0.75;100.00
25722;BME280;13578;53.450;15.496;2023-03-15T05:34:18;98967.00;;;-0.61;100.00
25722;BME280;13578;53.450;15.496;2023-03-15T05:37:21;98973.50;;;-0.65;100.00
25722;BME280;13578;53.450;15.496;2023-03-15T05:40:22;98994.38;;;-0.53;100.00
25722;BME280;13578;53.450;15.496;2023-03-15T05:43:22;98986.66;;;-0.59;100.00
25722;BME280;13578;53.450;15.496;2023-03-15T05:46:23;98991.25;;;-0.61;100.00
25722;BME280;13578;53.450;15.496;2023-03-15T05:49:24;98990.38;;;-0.61;100.00
25722;BME280;13578;53.450;15.496;2023-03-15T05:52:24;98996.28;;;-0.55;100.00
25722;BME280;13578;53.450;15.496;2023-03-15T05:55:25;99000.72;;;-0.38;100.00
25722;BME280;13578;53.450;15.496;2023-03-15T05:58:26;98996.63;;;-0.45;100.00
25722;BME280;13578;53.450;15.496;2023-03-15T06:01:27;99006.69;;;-0.33;100.00
25722;BME280;13578;53.450;15.496;2023-03-15T06:04:28;99018.47;;;-0.34;100.00
25722;BME280;13578;53.450;15.496;2023-03-15T06:07:28;99027.06;;;-0.27;100.00
25722;BME280;13578;53.450;15.496;2023-03-15T06:10:29;99040.00;;;-0.18;100.00
25722;BME280;13578;53.450;15.496;2023-03-15T06:13:29;99046.88;;;-0.28;100.00
25722;BME280;13578;53.450;15.496;2023-03-15T06:16:30;99048.13;;;-0.34;100.00
25722;BME280;13578;53.450;15.496;2023-03-15T06:19:31;99054.22;;;-0.30;100.00
25722;BME280;13578;53.450;15.496;2023-03-15T06:22:31;99064.66;;;-0.24;100.00
25722;BME280;13578;53.450;15.496;2023-03-15T06:25:32;99068.78;;;-0.18;100.00
25722;BME280;13578;53.450;15.496;2023-03-15T06:28:33;99078.72;;;-0.19;100.00
25722;BME280;13578;53.450;15.496;2023-03-15T06:31:34;99080.97;;;-0.11;100.00
25722;BME280;13578;53.450;15.496;2023-03-15T06:34:35;99084.34;;;-0.07;100.00
25722;BME280;13578;53.450;15.496;2023-03-15T06:37:35;99075.50;;;-0.09;100.00
25722;BME280;13578;53.450;15.496;2023-03-15T06:40:36;99084.09;;;-0.03;100.00
25722;BME280;13578;53.450;15.496;2023-03-15T06:43:37;99094.13;;;-0.05;100.00
25722;BME280;13578;53.450;15.496;2023-03-15T06:46:37;99098.13;;;0.04;100.00
25722;BME280;13578;53.450;15.496;2023-03-15T06:49:39;99092.19;;;-0.03;100.00
25722;BME280;13578;53.450;15.496;2023-03-15T06:52:39;99098.13;;;-0.12;100.00
25722;BME280;13578;53.450;15.496;2023-03-15T06:55:40;99095.84;;;-0.04;100.00
25722;BME280;13578;53.450;15.496;2023-03-15T06:58:41;99117.53;;;0.11;100.00
25722;BME280;13578;53.450;15.496;2023-03-15T07:01:42;99121.72;;;0.01;100.00
25722;BME280;13578;53.450;15.496;2023-03-15T07:04:43;99121.53;;;0.04;100.00
25722;BME280;13578;53.450;15.496;2023-03-15T07:07:44;99133.78;;;0.09;100.00
25722;BME280;13578;53.450;15.496;2023-03-15T07:10:45;99131.28;;;0.06;100.00
25722;BME280;13578;53.450;15.496;2023-03-15T07:13:46;99139.03;;;0.12;100.00
25722;BME280;13578;53.450;15.496;2023-03-15T07:16:47;99138.13;;;0.12;100.00
25722;BME280;13578;53.450;15.496;2023-03-15T07:19:48;99151.19;;;0.20;100.00
25722;BME280;13578;53.450;15.496;2023-03-15T07:22:51;99147.72;;;0.18;100.00
25722;BME280;13578;53.450;15.496;2023-03-15T07:25:52;99165.28;;;0.25;100.00
25722;BME280;13578;53.450;15.496;2023-03-15T07:28:53;99173.84;;;0.17;100.00
25722;BME280;13578;53.450;15.496;2023-03-15T07:31:54;99168.00;;;0.25;100.00
25722;BME280;13578;53.450;15.496;2023-03-15T07:34:54;99186.38;;;0.34;100.00
25722;BME280;13578;53.450;15.496;2023-03-15T07:37:59;99178.25;;;0.34;100.00
25722;BME280;13578;53.450;15.496;2023-03-15T07:41:01;99195.66;;;0.44;100.00
25722;BME280;13578;53.450;15.496;2023-03-15T07:44:02;99187.56;;;0.44;100.00
25722;BME280;13578;53.450;15.496;2023-03-15T07:47:03;99198.66;;;0.40;100.00
25722;BME280;13578;53.450;15.496;2023-03-15T07:50:04;99191.25;;;0.43;100.00
25722;BME280;13578;53.450;15.496;2023-03-15T07:53:06;99205.91;;;0.54;100.00
25722;BME280;13578;53.450;15.496;2023-03-15T07:56:07;99205.34;;;0.49;100.00
25722;BME280;13578;53.450;15.496;2023-03-15T07:59:07;99214.81;;;0.56;100.00
25722;BME280;13578;53.450;15.496;2023-03-15T08:02:11;99227.09;;;0.61;100.00
25722;BME280;13578;53.450;15.496;2023-03-15T08:05:12;99221.28;;;0.53;100.00
25722;BME280;13578;53.450;15.496;2023-03-15T08:08:13;99226.25;;;0.45;100.00
25722;BME280;13578;53.450;15.496;2023-03-15T08:11:13;99241.22;;;0.51;100.00
25722;BME280;13578;53.450;15.496;2023-03-15T08:14:14;99243.94;;;0.51;100.00
25722;BME280;13578;53.450;15.496;2023-03-15T08:17:14;99260.97;;;0.51;100.00
25722;BME280;13578;53.450;15.496;2023-03-15T08:20:16;99266.38;;;0.51;100.00
25722;BME280;13578;53.450;15.496;2023-03-15T08:23:19;99257.75;;;0.60;100.00
25722;BME280;13578;53.450;15.496;2023-03-15T08:26:21;99254.88;;;0.63;100.00
25722;BME280;13578;53.450;15.496;2023-03-15T08:29:21;99265.06;;;0.74;100.00
25722;BME280;13578;53.450;15.496;2023-03-15T08:32:22;99261.56;;;0.88;100.00
25722;BME280;13578;53.450;15.496;2023-03-15T08:35:22;99268.81;;;0.88;100.00
25722;BME280;13578;53.450;15.496;2023-03-15T08:38:23;99281.94;;;0.94;100.00
25722;BME280;13578;53.450;15.496;2023-03-15T08:41:25;99276.53;;;0.94;100.00
25722;BME280;13578;53.450;15.496;2023-03-15T08:44:26;99282.63;;;0.98;100.00
25722;BME280;13578;53.450;15.496;2023-03-15T08:47:27;99302.03;;;1.04;100.00
25722;BME280;13578;53.450;15.496;2023-03-15T08:50:28;99308.06;;;1.09;100.00
25722;BME280;13578;53.450;15.496;2023-03-15T08:53:31;99315.75;;;1.01;100.00
25722;BME280;13578;53.450;15.496;2023-03-15T08:56:32;99321.53;;;0.95;100.00
25722;BME280;13578;53.450;15.496;2023-03-15T08:59:32;99309.41;;;1.02;100.00
25722;BME280;13578;53.450;15.496;2023-03-15T09:02:34;99318.31;;;1.19;100.00
25722;BME280;13578;53.450;15.496;2023-03-15T09:05:35;99313.53;;;1.24;100.00
25722;BME280;13578;53.450;15.496;2023-03-15T09:08:36;99330.44;;;1.27;100.00
25722;BME280;13578;53.450;15.496;2023-03-15T09:11:36;99332.72;;;1.19;100.00
25722;BME280;13578;53.450;15.496;2023-03-15T09:14:37;99345.44;;;1.17;100.00
25722;BME280;13578;53.450;15.496;2023-03-15T09:17:39;99346.41;;;1.32;100.00
25722;BME280;13578;53.450;15.496;2023-03-15T09:20:39;99339.72;;;1.38;100.00
25722;BME280;13578;53.450;15.496;2023-03-15T09:23:40;99350.41;;;1.25;100.00
25722;BME280;13578;53.450;15.496;2023-03-15T09:26:41;99369.03;;;1.46;100.00
25722;BME280;13578;53.450;15.496;2023-03-15T09:29:42;99368.03;;;1.32;100.00
25722;BME280;13578;53.450;15.496;2023-03-15T09:32:43;99384.66;;;1.40;100.00
25722;BME280;13578;53.450;15.496;2023-03-15T09:35:44;99376.78;;;1.52;100.00
25722;BME280;13578;53.450;15.496;2023-03-15T09:38:45;99376.56;;;1.71;100.00
25722;BME280;13578;53.450;15.496;2023-03-15T09:41:52;99366.72;;;1.84;100.00
25722;BME280;13578;53.450;15.496;2023-03-15T09:45:21;99396.56;;;2.28;100.00
25722;BME280;13578;53.450;15.496;2023-03-15T09:48:39;99402.06;;;2.12;100.00
25722;BME280;13578;53.450;15.496;2023-03-15T09:52:07;99407.88;;;2.05;100.00
25722;BME280;13578;53.450;15.496;2023-03-15T09:55:20;99414.16;;;2.35;100.00
25722;BME280;13578;53.450;15.496;2023-03-15T09:58:28;99410.78;;;2.17;100.00
25722;BME280;13578;53.450;15.496;2023-03-15T10:01:36;99406.28;;;2.01;100.00
25722;BME280;13578;53.450;15.496;2023-03-15T10:04:38;99419.31;;;2.40;100.00
25722;BME280;13578;53.450;15.496;2023-03-15T10:07:41;99427.63;;;2.51;100.00
25722;BME280;13578;53.450;15.496;2023-03-15T10:14:29;99414.06;;;2.65;100.00
25722;BME280;13578;53.450;15.496;2023-03-15T10:18:16;99425.31;;;2.59;100.00
25722;BME280;13578;53.450;15.496;2023-03-15T10:21:39;99429.56;;;2.49;100.00
25722;BME280;13578;53.450;15.496;2023-03-15T10:24:58;99438.16;;;2.41;100.00
25722;BME280;13578;53.450;15.496;2023-03-15T10:28:08;99442.44;;;2.60;100.00
25722;BME280;13578;53.450;15.496;2023-03-15T10:31:15;99432.06;;;2.66;100.00
25722;BME280;13578;53.450;15.496;2023-03-15T10:34:18;99436.06;;;2.75;100.00
25722;BME280;13578;53.450;15.496;2023-03-15T10:37:19;99429.28;;;2.68;100.00
25722;BME280;13578;53.450;15.496;2023-03-15T10:40:43;99441.75;;;2.85;100.00
25722;BME280;13578;53.450;15.496;2023-03-15T10:43:56;99444.13;;;3.18;100.00
25722;BME280;13578;53.450;15.496;2023-03-15T10:47:01;99449.03;;;3.68;100.00
25722;BME280;13578;53.450;15.496;2023-03-15T10:50:02;99442.66;;;3.82;100.00
25722;BME280;13578;53.450;15.496;2023-03-15T10:53:08;99424.53;;;3.55;100.00
25722;BME280;13578;53.450;15.496;2023-03-15T10:56:16;99462.56;;;3.41;100.00
25722;BME280;13578;53.450;15.496;2023-03-15T10:59:26;99457.72;;;3.46;100.00
25722;BME280;13578;53.450;15.496;2023-03-15T11:02:26;99462.13;;;3.34;100.00
25722;BME280;13578;53.450;15.496;2023-03-15T11:05:40;99461.66;;;3.13;100.00
25722;BME280;13578;53.450;15.496;2023-03-15T11:08:41;99472.59;;;3.26;100.00
25722;BME280;13578;53.450;15.496;2023-03-15T11:11:52;99478.31;;;3.63;100.00
25722;BME280;13578;53.450;15.496;2023-03-15T11:15:01;99474.88;;;4.14;100.00
25722;BME280;13578;53.450;15.496;2023-03-15T11:18:03;99465.16;;;4.24;100.00
25722;BME280;13578;53.450;15.496;2023-03-15T11:21:07;99449.97;;;3.94;100.00
25722;BME280;13578;53.450;15.496;2023-03-15T11:24:38;99452.84;;;3.78;100.00
25722;BME280;13578;53.450;15.496;2023-03-15T11:27:38;99468.06;;;3.81;100.00
25722;BME280;13578;53.450;15.496;2023-03-15T11:30:40;99459.25;;;4.18;100.00
25722;BME280;13578;53.450;15.496;2023-03-15T11:34:12;99448.34;;;4.05;100.00
25722;BME280;13578;53.450;15.496;2023-03-15T11:37:16;99450.00;;;3.67;100.00
25722;BME280;13578;53.450;15.496;2023-03-15T11:40:24;99455.16;;;3.57;100.00
25722;BME280;13578;53.450;15.496;2023-03-15T11:43:44;99465.81;;;3.60;100.00
25722;BME280;13578;53.450;15.496;2023-03-15T11:50:12;99451.63;;;3.42;100.00
25722;BME280;13578;53.450;15.496;2023-03-15T11:53:15;99464.66;;;4.05;100.00
25722;BME280;13578;53.450;15.496;2023-03-15T11:59:28;99443.06;;;4.93;100.00
25722;BME280;13578;53.450;15.496;2023-03-15T12:06:00;99431.47;;;4.66;100.00
25722;BME280;13578;53.450;15.496;2023-03-15T12:09:01;99447.00;;;4.64;100.00
25722;BME280;13578;53.450;15.496;2023-03-15T12:18:32;99458.31;;;5.33;100.00
25722;BME280;13578;53.450;15.496;2023-03-15T12:21:39;99443.53;;;5.24;100.00
25722;BME280;13578;53.450;15.496;2023-03-15T12:24:43;99457.75;;;4.91;100.00
25722;BME280;13578;53.450;15.496;2023-03-15T12:27:50;99437.34;;;4.59;100.00
25722;BME280;13578;53.450;15.496;2023-03-15T12:30:55;99457.94;;;4.10;100.00
25722;BME280;13578;53.450;15.496;2023-03-15T12:33:56;99480.75;;;4.08;100.00
25722;BME280;13578;53.450;15.496;2023-03-15T12:37:05;99497.63;;;3.58;100.00
25722;BME280;13578;53.450;15.496;2023-03-15T12:43:42;99516.06;;;2.07;100.00
25722;BME280;13578;53.450;15.496;2023-03-15T12:49:44;99501.50;;;1.94;100.00
25722;BME280;13578;53.450;15.496;2023-03-15T12:52:45;99507.34;;;1.86;100.00
25722;BME280;13578;53.450;15.496;2023-03-15T12:55:52;99500.50;;;1.95;100.00
25722;BME280;13578;53.450;15.496;2023-03-15T12:58:56;99507.13;;;2.05;100.00
25722;BME280;13578;53.450;15.496;2023-03-15T13:02:01;99524.66;;;2.14;100.00
25722;BME280;13578;53.450;15.496;2023-03-15T13:08:20;99550.97;;;2.12;100.00
25722;BME280;13578;53.450;15.496;2023-03-15T13:17:56;99538.00;;;1.22;100.00
25722;BME280;13578;53.450;15.496;2023-03-15T13:24:22;99520.63;;;1.58;100.00
25722;BME280;13578;53.450;15.496;2023-03-15T13:27:27;99530.78;;;1.71;100.00
25722;BME280;13578;53.450;15.496;2023-03-15T13:30:47;99526.03;;;1.90;100.00
25722;BME280;13578;53.450;15.496;2023-03-15T13:33:50;99527.72;;;2.08;100.00
25722;BME280;13578;53.450;15.496;2023-03-15T13:36:57;99527.47;;;2.12;100.00
25722;BME280;13578;53.450;15.496;2023-03-15T13:40:11;99537.66;;;2.23;100.00
25722;BME280;13578;53.450;15.496;2023-03-15T13:43:12;99538.22;;;2.44;100.00
25722;BME280;13578;53.450;15.496;2023-03-15T13:46:13;99548.22;;;2.73;100.00
25722;BME280;13578;53.450;15.496;2023-03-15T13:49:14;99551.63;;;3.05;100.00
25722;BME280;13578;53.450;15.496;2023-03-15T13:52:15;99548.34;;;3.29;100.00
25722;BME280;13578;53.450;15.496;2023-03-15T13:55:21;99569.72;;;3.62;100.00
25722;BME280;13578;53.450;15.496;2023-03-15T13:58:22;99575.41;;;3.72;100.00
25722;BME280;13578;53.450;15.496;2023-03-15T14:01:24;99584.13;;;3.77;100.00
25722;BME280;13578;53.450;15.496;2023-03-15T14:04:27;99565.88;;;3.52;100.00
25722;BME280;13578;53.450;15.496;2023-03-15T14:07:28;99568.28;;;3.42;100.00
25722;BME280;13578;53.450;15.496;2023-03-15T14:10:38;99558.03;;;3.47;100.00
25722;BME280;13578;53.450;15.496;2023-03-15T14:13:51;99561.03;;;3.43;100.00
25722;BME280;13578;53.450;15.496;2023-03-15T14:16:55;99549.81;;;3.20;100.00
25722;BME280;13578;53.450;15.496;2023-03-15T14:20:06;99565.41;;;3.16;100.00
25722;BME280;13578;53.450;15.496;2023-03-15T14:23:15;99553.28;;;2.93;100.00
25722;BME280;13578;53.450;15.496;2023-03-15T14:26:26;99561.31;;;2.95;100.00
25722;BME280;13578;53.450;15.496;2023-03-15T14:29:32;99561.03;;;2.99;100.00
25722;BME280;13578;53.450;15.496;2023-03-15T14:32:34;99563.16;;;3.09;100.00
25722;BME280;13578;53.450;15.496;2023-03-15T14:38:37;99557.81;;;2.93;100.00
25722;BME280;13578;53.450;15.496;2023-03-15T14:41:38;99571.88;;;2.99;100.00
25722;BME280;13578;53.450;15.496;2023-03-15T14:44:39;99572.28;;;3.08;100.00
25722;BME280;13578;53.450;15.496;2023-03-15T14:47:43;99568.78;;;3.06;100.00
25722;BME280;13578;53.450;15.496;2023-03-15T14:50:46;99586.31;;;3.14;100.00
25722;BME280;13578;53.450;15.496;2023-03-15T14:53:50;99585.53;;;3.12;100.00
25722;BME280;13578;53.450;15.496;2023-03-15T14:56:52;99580.78;;;3.16;100.00
25722;BME280;13578;53.450;15.496;2023-03-15T14:59:52;99582.81;;;3.12;100.00
25722;BME280;13578;53.450;15.496;2023-03-15T15:02:55;99581.38;;;3.21;100.00
25722;BME280;13578;53.450;15.496;2023-03-15T15:05:57;99581.28;;;3.23;100.00
25722;BME280;13578;53.450;15.496;2023-03-15T15:08:59;99584.50;;;3.29;100.00
25722;BME280;13578;53.450;15.496;2023-03-15T15:12:00;99585.91;;;3.35;100.00
25722;BME280;13578;53.450;15.496;2023-03-15T15:15:12;99587.56;;;3.23;100.00
25722;BME280;13578;53.450;15.496;2023-03-15T15:18:14;99589.03;;;3.14;100.00
25722;BME280;13578;53.450;15.496;2023-03-15T15:21:22;99593.38;;;3.02;100.00
25722;BME280;13578;53.450;15.496;2023-03-15T15:24:25;99600.13;;;2.95;100.00
25722;BME280;13578;53.450;15.496;2023-03-15T15:27:26;99598.19;;;2.83;100.00
25722;BME280;13578;53.450;15.496;2023-03-15T15:30:27;99602.34;;;2.74;100.00
25722;BME280;13578;53.450;15.496;2023-03-15T15:33:29;99598.00;;;2.72;100.00
25722;BME280;13578;53.450;15.496;2023-03-15T15:36:37;99591.88;;;2.68;100.00
25722;BME280;13578;53.450;15.496;2023-03-15T15:39:38;99607.16;;;2.69;100.00
25722;BME280;13578;53.450;15.496;2023-03-15T15:42:40;99617.91;;;2.70;100.00
25722;BME280;13578;53.450;15.496;2023-03-15T15:45:41;99608.47;;;2.62;100.00
25722;BME280;13578;53.450;15.496;2023-03-15T15:48:42;99601.41;;;2.59;100.00
25722;BME280;13578;53.450;15.496;2023-03-15T15:51:44;99604.16;;;2.74;100.00
25722;BME280;13578;53.450;15.496;2023-03-15T15:54:45;99613.34;;;2.71;100.00
25722;BME280;13578;53.450;15.496;2023-03-15T15:57:48;99619.00;;;2.52;100.00
25722;BME280;13578;53.450;15.496;2023-03-15T16:00:49;99620.84;;;2.51;100.00
25722;BME280;13578;53.450;15.496;2023-03-15T16:03:50;99624.78;;;2.46;100.00
25722;BME280;13578;53.450;15.496;2023-03-15T16:06:53;99606.16;;;2.25;100.00
25722;BME280;13578;53.450;15.496;2023-03-15T16:09:56;99623.25;;;2.26;100.00
25722;BME280;13578;53.450;15.496;2023-03-15T16:13:01;99616.72;;;2.30;100.00
25722;BME280;13578;53.450;15.496;2023-03-15T16:16:03;99610.97;;;2.20;100.00
25722;BME280;13578;53.450;15.496;2023-03-15T16:19:04;99612.63;;;2.06;100.00
25722;BME280;13578;53.450;15.496;2023-03-15T16:22:06;99601.38;;;1.98;100.00
25722;BME280;13578;53.450;15.496;2023-03-15T16:25:10;99622.59;;;1.90;100.00
25722;BME280;13578;53.450;15.496;2023-03-15T16:28:13;99623.13;;;1.81;100.00
25722;BME280;13578;53.450;15.496;2023-03-15T16:31:14;99619.25;;;1.85;100.00
25722;BME280;13578;53.450;15.496;2023-03-15T16:34:16;99641.81;;;1.85;100.00
25722;BME280;13578;53.450;15.496;2023-03-15T16:37:29;99641.09;;;1.82;100.00